PrinceSS Juana K — HPFV — position and weather

sailwx.info

Track history (hours):
 
Tides and Currents Weather Stations Pressure Air Temp Water Temp Dewpoint Dewpoint Depression Visibility Wind Speed Wind Dir Waves Ship Positions

PrinceSS Juana K

Last reported at 2015-Jan-26 20:29 UTC. Time now 2015-Jan-30 00:30 UTC.
Position N 36°54' E 013°42'.

Length 145 m; draft 8 m.

Type: Cargo ship. MMSI: 352982000.

Date/timePositionNaut miles runAvg speedWind from/ knotsBaromVisibWave heightAir tempDewpointWater temp
2015-Jan-26 20:29N 36°54' E 013°42'8 8.4
2015-Jan-26 19:33N 36°51' E 013°51'8 8.4
2015-Jan-26 18:34N 36°49' E 014°01'8 8.4
2015-Jan-26 17:34N 36°47' E 014°11'9 8.6
2015-Jan-26 16:34N 36°44' E 014°21'8 8.3
2015-Jan-26 15:33N 36°42' E 014°31'8 7.9
2015-Jan-26 14:33N 36°40' E 014°41'  
2015-Jan-22 04:17N 37°31' E 024°05'10 8.9
2015-Jan-22 03:12N 37°39' E 024°12'155 8.2
2015-Jan-21 08:17N 39°53' E 025°52'42 8.3
2015-Jan-21 03:09N 40°19' E 026°36'  
2015-Jan-18 20:33N 41°30' E 029°23'8 8.0
2015-Jan-18 19:34N 41°34' E 029°32'272 8.5
2015-Jan-17 11:32N 43°35' E 035°03'115 8.8
2015-Jan-16 22:30N 44°26' E 037°26'9 9.0
2015-Jan-16 21:33N 44°30' E 037°37'9 8.6
2015-Jan-16 20:34N 44°35' E 037°46'  
Track history (hours):
 
Tides and Currents Weather Stations Pressure Air Temp Water Temp Dewpoint Dewpoint Depression Visibility Wind Speed Wind Dir Waves Ship Positions

PrinceSS Juana K

Last reported at 2015-Jan-26 20:29 UTC. Time now 2015-Jan-30 00:30 UTC.
Position N 36°54' E 013°42'.

Length 145 m; draft 8 m.

Type: Cargo ship. MMSI: 352982000.

Date/timePositionNaut miles runAvg speedWind from/ knotsBaromVisibWave heightAir tempDewpointWater temp
2015-Jan-26 20:29N 36°54' E 013°42'8 8.4
2015-Jan-26 19:33N 36°51' E 013°51'8 8.4
2015-Jan-26 18:34N 36°49' E 014°01'8 8.4
2015-Jan-26 17:34N 36°47' E 014°11'9 8.6
2015-Jan-26 16:34N 36°44' E 014°21'8 8.3
2015-Jan-26 15:33N 36°42' E 014°31'8 7.9
2015-Jan-26 14:33N 36°40' E 014°41'  
2015-Jan-22 04:17N 37°31' E 024°05'10 8.9
2015-Jan-22 03:12N 37°39' E 024°12'155 8.2
2015-Jan-21 08:17N 39°53' E 025°52'42 8.3
2015-Jan-21 03:09N 40°19' E 026°36'  
2015-Jan-18 20:33N 41°30' E 029°23'8 8.0
2015-Jan-18 19:34N 41°34' E 029°32'272 8.5
2015-Jan-17 11:32N 43°35' E 035°03'115 8.8
2015-Jan-16 22:30N 44°26' E 037°26'9 9.0
2015-Jan-16 21:33N 44°30' E 037°37'9 8.6
2015-Jan-16 20:34N 44°35' E 037°46'  

Dump ship's entire track history